createdAt,value
2019-03-01T00:01:06.927Z,100725.25
2019-03-01T00:03:39.389Z,100722.62
2019-03-01T00:06:22.399Z,100718.27
2019-03-01T00:09:25.855Z,100720.90
2019-03-01T00:12:45.568Z,100720.42
2019-03-01T00:15:27.478Z,100724.77
2019-03-01T00:18:38.953Z,100727.80
2019-03-01T00:21:39.691Z,100725.09
2019-03-01T00:24:46.598Z,100725.94
2019-03-01T00:28:01.598Z,100721.02
2019-03-01T00:31:28.512Z,100720.03
2019-03-01T00:34:38.233Z,100717.66
2019-03-01T00:37:33.660Z,100714.45
2019-03-01T00:40:30.905Z,100715.55
2019-03-01T00:43:38.259Z,100710.55
2019-03-01T00:46:11.121Z,100713.83
2019-03-01T00:48:42.320Z,100712.25
2019-03-01T00:51:13.536Z,100713.02
2019-03-01T00:53:44.797Z,100709.81
2019-03-01T00:56:16.054Z,100711.95
2019-03-01T00:58:47.389Z,100708.82
2019-03-01T01:01:18.671Z,100703.09
2019-03-01T01:03:49.977Z,100695.95
2019-03-01T01:06:21.178Z,100689.70
2019-03-01T01:08:52.472Z,100681.36
2019-03-01T01:11:23.638Z,100691.34
2019-03-01T01:13:54.898Z,100689.16
2019-03-01T01:16:26.289Z,100692.19
2019-03-01T01:18:57.568Z,100689.96
2019-03-01T01:21:28.737Z,100689.96
2019-03-01T01:23:59.961Z,100687.27
2019-03-01T01:26:31.264Z,100685.44
2019-03-01T01:29:02.422Z,100681.50
2019-03-01T01:31:33.642Z,100677.48
2019-03-01T01:34:04.833Z,100668.23
2019-03-01T01:36:36.078Z,100673.80
2019-03-01T01:39:08.762Z,100671.18
2019-03-01T01:41:40.105Z,100673.73
2019-03-01T01:44:11.291Z,100657.50
2019-03-01T01:46:42.551Z,100656.59
2019-03-01T01:49:13.773Z,100649.95
2019-03-01T01:51:45.005Z,100649.95
2019-03-01T01:54:16.211Z,100643.28
2019-03-01T01:56:47.452Z,100635.78
2019-03-01T01:59:18.616Z,100639.20
2019-03-01T02:01:49.910Z,100643.98
2019-03-01T02:04:21.136Z,100639.53
2019-03-01T02:06:52.369Z,100635.48
2019-03-01T02:09:26.014Z,100631.88
2019-03-01T02:11:57.364Z,100625.72
2019-03-01T02:14:28.616Z,100622.14
2019-03-01T02:16:59.818Z,100627.71
2019-03-01T02:19:31.021Z,100624.58
2019-03-01T02:22:02.282Z,100621.48
2019-03-01T02:24:33.557Z,100619.58
2019-03-01T02:27:24.958Z,100612.11
2019-03-01T02:29:56.333Z,100616.41
2019-03-01T02:32:39.967Z,100605.41
2019-03-01T02:35:13.359Z,100603.62
2019-03-01T02:37:44.741Z,100603.03
2019-03-01T02:40:15.916Z,100602.05
2019-03-01T02:42:47.090Z,100599.59
2019-03-01T02:45:19.785Z,100602.95
2019-03-01T02:47:50.992Z,100611.06
2019-03-01T02:50:22.304Z,100598.20
2019-03-01T02:52:53.488Z,100600.34
2019-03-01T02:55:24.713Z,100588.88
2019-03-01T02:57:55.931Z,100595.43
2019-03-01T03:00:28.323Z,100591.89
2019-03-01T03:02:59.461Z,100589.20
2019-03-01T03:05:30.749Z,100586.57
2019-03-01T03:08:09.214Z,100582.97
2019-03-01T03:10:40.723Z,100582.89
2019-03-01T03:13:11.881Z,100587.22
2019-03-01T03:15:47.853Z,100583.61
2019-03-01T03:18:19.043Z,100581.83
2019-03-01T03:20:50.204Z,100584.02
2019-03-01T03:23:21.450Z,100580.00
2019-03-01T03:25:52.796Z,100576.07
2019-03-01T03:28:24.026Z,100572.90
2019-03-01T03:30:55.162Z,100577.23
2019-03-01T03:33:26.365Z,100578.03
2019-03-01T03:35:57.555Z,100575.41
2019-03-01T03:38:28.940Z,100574.94
2019-03-01T03:41:00.328Z,100581.41
2019-03-01T03:43:31.522Z,100571.25
2019-03-01T03:46:02.714Z,100573.80
2019-03-01T03:48:36.021Z,100571.89
2019-03-01T03:51:06.809Z,100560.94
2019-03-01T03:53:37.985Z,100560.42
2019-03-01T03:56:09.232Z,100566.06
2019-03-01T03:58:40.388Z,100564.20
2019-03-01T04:01:11.669Z,100567.22
2019-03-01T04:03:42.883Z,100573.70
2019-03-01T04:06:14.165Z,100566.55
2019-03-01T04:08:45.426Z,100567.87
2019-03-01T04:11:16.661Z,100569.50
2019-03-01T04:13:48.805Z,100562.95
2019-03-01T04:16:20.134Z,100564.62
2019-03-01T04:18:51.431Z,100562.47
2019-03-01T04:21:22.668Z,100557.23
2019-03-01T04:23:53.848Z,100553.30
2019-03-01T04:26:25.090Z,100556.75
2019-03-01T04:28:56.247Z,100554.13
2019-03-01T04:31:27.422Z,100557.16
2019-03-01T04:33:58.593Z,100550.02
2019-03-01T04:36:29.866Z,100546.91
2019-03-01T04:39:01.082Z,100539.38
2019-03-01T04:41:34.248Z,100542.47
2019-03-01T04:44:05.498Z,100545.92
2019-03-01T04:46:36.634Z,100543.23
2019-03-01T04:49:08.050Z,100540.17
2019-03-01T04:51:40.259Z,100538.06
2019-03-01T04:54:11.736Z,100539.38
2019-03-01T04:56:43.047Z,100528.89
2019-03-01T04:59:14.478Z,100534.13
2019-03-01T05:01:45.640Z,100522.27
2019-03-01T05:04:16.902Z,100528.37
2019-03-01T05:06:48.172Z,100526.19
2019-03-01T05:09:19.432Z,100529.69
2019-03-01T05:11:50.664Z,100518.25
2019-03-01T05:14:21.869Z,100518.14
2019-03-01T05:16:53.047Z,100513.34
2019-03-01T05:19:24.199Z,100511.12
2019-03-01T05:21:55.399Z,100514.65
2019-03-01T05:24:26.774Z,100510.20
2019-03-01T05:26:57.983Z,100510.61
2019-03-01T05:29:29.390Z,100506.59
2019-03-01T05:32:01.720Z,100503.50
2019-03-01T05:34:33.115Z,100513.15
2019-03-01T05:37:04.370Z,100524.54
2019-03-01T05:39:35.579Z,100521.45
2019-03-01T05:42:06.755Z,100515.22
2019-03-01T05:44:38.001Z,100515.61
2019-03-01T05:47:09.160Z,100511.17
2019-03-01T05:49:42.027Z,100513.00
2019-03-01T05:52:13.305Z,100518.16
2019-03-01T05:54:46.102Z,100518.95
2019-03-01T05:57:17.329Z,100521.18
2019-03-01T05:59:48.583Z,100529.04
2019-03-01T06:02:56.830Z,100527.73
2019-03-01T06:05:37.804Z,100526.42
2019-03-01T06:08:53.315Z,100525.11
2019-03-01T06:12:01.615Z,100518.95
2019-03-01T06:15:04.580Z,100508.00
2019-03-01T06:18:21.051Z,100511.53
2019-03-01T06:21:17.598Z,100507.60
2019-03-01T06:24:10.330Z,100511.02
2019-03-01T06:27:06.880Z,100506.69
2019-03-01T06:29:58.307Z,100510.55
2019-03-01T06:33:21.010Z,100519.20
2019-03-01T06:36:10.178Z,100523.13
2019-03-01T06:39:32.981Z,100517.89
2019-03-01T06:42:11.763Z,100521.83
2019-03-01T06:45:23.606Z,100520.91
2019-03-01T06:47:54.822Z,100524.05
2019-03-01T06:50:39.658Z,100519.72
2019-03-01T06:53:10.846Z,100522.48
2019-03-01T06:56:03.065Z,100524.78
2019-03-01T06:58:37.023Z,100524.39
2019-03-01T07:01:29.989Z,100528.00
2019-03-01T07:04:06.928Z,100524.62
2019-03-01T07:06:38.102Z,100522.08
2019-03-01T07:09:09.420Z,100524.38
2019-03-01T07:11:40.929Z,100524.45
2019-03-01T07:14:12.130Z,100526.27
2019-03-01T07:16:43.365Z,100517.76
2019-03-01T07:19:14.696Z,100520.06
2019-03-01T07:21:46.910Z,100530.62
2019-03-01T07:24:18.266Z,100531.09
2019-03-01T07:26:49.587Z,100528.07
2019-03-01T07:29:20.801Z,100528.66
2019-03-01T07:31:53.053Z,100528.30
2019-03-01T07:34:24.243Z,100521.86
2019-03-01T07:36:56.610Z,100517.56
2019-03-01T07:39:27.870Z,100525.11
2019-03-01T07:41:59.036Z,100524.78
2019-03-01T07:44:30.189Z,100523.14
2019-03-01T07:47:01.330Z,100530.36
2019-03-01T07:49:32.547Z,100529.52
2019-03-01T07:52:04.970Z,100530.62
2019-03-01T07:54:36.641Z,100532.80
2019-03-01T07:57:07.867Z,100532.33
2019-03-01T07:59:39.526Z,100538.88
2019-03-01T08:02:11.788Z,100540.20
2019-03-01T08:04:43.005Z,100536.34
2019-03-01T08:07:14.397Z,100540.34
2019-03-01T08:09:45.754Z,100541.81
2019-03-01T08:12:16.846Z,100542.47
2019-03-01T08:14:48.040Z,100549.61
2019-03-01T08:17:19.228Z,100550.27
2019-03-01T08:19:50.354Z,100547.86
2019-03-01T08:22:25.107Z,100551.47
2019-03-01T08:24:55.793Z,100545.06
2019-03-01T08:27:26.926Z,100546.55
2019-03-01T08:29:58.060Z,100549.00
2019-03-01T08:32:30.721Z,100548.81
2019-03-01T08:35:02.186Z,100546.77
2019-03-01T08:37:33.433Z,100551.77
2019-03-01T08:40:07.342Z,100548.30
2019-03-01T08:42:38.683Z,100540.94
2019-03-01T08:45:11.545Z,100544.65
2019-03-01T08:47:42.755Z,100546.17
2019-03-01T08:50:15.610Z,100549.31
2019-03-01T08:52:46.906Z,100549.53
2019-03-01T08:55:18.813Z,100548.06
2019-03-01T08:57:50.112Z,100550.90
2019-03-01T09:00:26.996Z,100551.14
2019-03-01T09:02:58.457Z,100559.67
2019-03-01T09:05:29.676Z,100552.74
2019-03-01T09:08:01.086Z,100558.64
2019-03-01T09:10:33.635Z,100561.44
2019-03-01T09:13:04.902Z,100565.12
2019-03-01T09:15:36.896Z,100565.59
2019-03-01T09:18:08.220Z,100561.79
2019-03-01T09:20:39.445Z,100565.91
2019-03-01T09:23:21.106Z,100563.16
2019-03-01T09:25:44.756Z,100567.34
2019-03-01T09:28:16.642Z,100564.84
2019-03-01T09:30:47.845Z,100563.67
2019-03-01T09:33:21.257Z,100561.28
2019-03-01T09:35:55.966Z,100563.23
2019-03-01T09:38:27.211Z,100560.75
2019-03-01T09:41:01.206Z,100558.77
2019-03-01T09:43:31.412Z,100569.41
2019-03-01T09:46:02.630Z,100572.20
2019-03-01T09:48:33.880Z,100570.95
2019-03-01T09:51:07.280Z,100572.34
2019-03-01T09:53:38.000Z,100572.81
2019-03-01T09:56:09.663Z,100575.87
2019-03-01T09:58:42.207Z,100580.16
2019-03-01T10:01:15.876Z,100579.28
2019-03-01T10:03:47.943Z,100581.20
2019-03-01T10:06:19.198Z,100579.34
2019-03-01T10:08:50.410Z,100584.52
2019-03-01T10:11:21.732Z,100584.69
2019-03-01T10:13:52.932Z,100584.41
2019-03-01T10:16:24.139Z,100590.80
2019-03-01T10:18:55.343Z,100588.38
2019-03-01T10:21:26.729Z,100597.23
2019-03-01T10:23:57.893Z,100600.59
2019-03-01T10:26:30.163Z,100608.14
2019-03-01T10:29:01.426Z,100606.83
2019-03-01T10:31:32.653Z,100601.10
2019-03-01T10:34:03.884Z,100603.87
2019-03-01T10:36:35.082Z,100606.67
2019-03-01T10:39:11.757Z,100612.06
2019-03-01T10:41:43.256Z,100615.73
2019-03-01T10:44:14.432Z,100621.13
2019-03-01T10:46:45.779Z,100617.13
2019-03-01T10:49:16.985Z,100622.38
2019-03-01T10:51:48.635Z,100625.84
2019-03-01T10:54:19.817Z,100625.78
2019-03-01T10:56:51.078Z,100629.34
2019-03-01T10:59:22.287Z,100630.77
2019-03-01T11:01:53.507Z,100628.21
2019-03-01T11:04:24.713Z,100633.53
2019-03-01T11:06:56.239Z,100634.02
2019-03-01T11:09:27.435Z,100635.83
2019-03-01T11:11:58.652Z,100638.86
2019-03-01T11:14:29.832Z,100639.77
2019-03-01T11:17:01.186Z,100642.00
2019-03-01T11:19:32.458Z,100642.40
2019-03-01T11:22:03.775Z,100645.94
2019-03-01T11:24:35.232Z,100642.88
2019-03-01T11:27:12.810Z,100640.17
2019-03-01T11:29:40.670Z,100627.55
2019-03-01T11:32:11.897Z,100626.70
2019-03-01T11:34:43.114Z,100628.92
2019-03-01T11:37:14.447Z,100626.77
2019-03-01T11:39:45.689Z,100634.25
2019-03-01T11:42:17.643Z,100632.09
2019-03-01T11:44:48.955Z,100644.50
2019-03-01T11:47:20.222Z,100649.42
2019-03-01T11:49:51.509Z,100652.52
2019-03-01T11:52:22.799Z,100651.55
2019-03-01T11:54:54.076Z,100653.22
2019-03-01T11:57:25.338Z,100656.92
2019-03-01T11:59:56.804Z,100663.43
2019-03-01T12:02:28.048Z,100658.81
2019-03-01T12:04:59.357Z,100651.78
2019-03-01T12:07:30.589Z,100660.64
2019-03-01T12:10:01.853Z,100653.10
2019-03-01T12:12:33.420Z,100656.82
2019-03-01T12:15:04.822Z,100656.82
2019-03-01T12:17:36.571Z,100659.45
2019-03-01T12:20:11.136Z,100656.56
2019-03-01T12:22:42.359Z,100659.27
2019-03-01T12:25:13.697Z,100656.38
2019-03-01T12:27:44.844Z,100664.26
2019-03-01T12:30:19.043Z,100661.30
2019-03-01T12:32:50.219Z,100662.29
2019-03-01T12:35:21.405Z,100669.95
2019-03-01T12:37:52.693Z,100679.05
2019-03-01T12:40:25.151Z,100690.72
2019-03-01T12:42:56.621Z,100689.22
2019-03-01T12:45:27.829Z,100698.33
2019-03-01T12:47:59.087Z,100702.19
2019-03-01T12:50:30.286Z,100706.53
2019-03-01T12:53:01.527Z,100718.08
2019-03-01T12:55:32.872Z,100713.47
2019-03-01T12:58:04.262Z,100721.99
2019-03-01T13:00:35.510Z,100730.70
2019-03-01T13:03:08.990Z,100728.98
2019-03-01T13:05:39.723Z,100725.53
2019-03-01T13:08:12.523Z,100723.62
2019-03-01T13:10:43.829Z,100721.77
2019-03-01T13:13:15.160Z,100731.34
2019-03-01T13:15:49.521Z,100735.28
2019-03-01T13:18:19.298Z,100736.19
2019-03-01T13:20:50.597Z,100739.53
2019-03-01T13:23:21.814Z,100739.06
2019-03-01T13:25:53.123Z,100743.80
2019-03-01T13:28:24.365Z,100753.41
2019-03-01T13:30:55.624Z,100757.75
2019-03-01T13:33:26.868Z,100752.91
2019-03-01T13:35:59.905Z,100758.66
2019-03-01T13:38:34.075Z,100758.14
2019-03-01T13:41:04.166Z,100766.84
2019-03-01T13:43:35.380Z,100755.61
2019-03-01T13:46:06.702Z,100763.28
2019-03-01T13:48:38.303Z,100768.53
2019-03-01T13:51:09.678Z,100769.44
2019-03-01T13:53:48.720Z,100780.84
2019-03-01T13:56:13.979Z,100778.95
2019-03-01T13:58:46.534Z,100775.41
2019-03-01T14:01:17.958Z,100788.88
2019-03-01T14:03:49.429Z,100793.53
2019-03-01T14:06:20.809Z,100795.23
2019-03-01T14:08:51.984Z,100797.38
2019-03-01T14:11:23.554Z,100793.53
2019-03-01T14:13:56.098Z,100796.31
2019-03-01T14:16:28.968Z,100792.77
2019-03-01T14:19:00.354Z,100797.94
2019-03-01T14:21:33.044Z,100796.34
2019-03-01T14:24:04.809Z,100803.54
2019-03-01T14:26:35.973Z,100805.83
2019-03-01T14:29:07.176Z,100805.78
2019-03-01T14:31:39.722Z,100811.89
2019-03-01T14:34:11.795Z,100809.48
2019-03-01T14:36:44.006Z,100821.61
2019-03-01T14:39:17.588Z,100817.22
2019-03-01T14:41:49.093Z,100824.45
2019-03-01T14:44:20.426Z,100825.83
2019-03-01T14:46:52.920Z,100833.35
2019-03-01T14:49:24.533Z,100842.16
2019-03-01T14:51:55.759Z,100848.02
2019-03-01T14:54:26.916Z,100847.72
2019-03-01T14:57:03.472Z,100850.42
2019-03-01T14:59:54.453Z,100850.94
2019-03-01T15:02:41.028Z,100846.19
2019-03-01T15:05:17.783Z,100848.19
2019-03-01T15:07:46.437Z,100851.98
2019-03-01T15:10:17.854Z,100849.06
2019-03-01T15:12:49.049Z,100855.82
2019-03-01T15:15:22.903Z,100857.70
2019-03-01T15:17:53.851Z,100855.69
2019-03-01T15:20:25.314Z,100866.65
2019-03-01T15:22:56.596Z,100868.95
2019-03-01T15:25:27.737Z,100875.02
2019-03-01T15:27:58.948Z,100869.80
2019-03-01T15:30:30.137Z,100874.98
2019-03-01T15:33:01.588Z,100875.12
2019-03-01T15:35:36.364Z,100885.31
2019-03-01T15:38:06.856Z,100887.87
2019-03-01T15:40:38.047Z,100894.02
2019-03-01T15:43:09.337Z,100901.73
2019-03-01T15:45:40.672Z,100896.92
2019-03-01T15:48:11.930Z,100907.80
2019-03-01T15:50:43.270Z,100910.72
2019-03-01T15:53:14.631Z,100917.07
2019-03-01T15:55:45.865Z,100926.92
2019-03-01T15:58:17.322Z,100923.30
2019-03-01T16:00:48.677Z,100924.60
2019-03-01T16:03:20.002Z,100934.28
2019-03-01T16:05:51.235Z,100932.77
2019-03-01T16:08:22.484Z,100935.08
2019-03-01T16:10:53.884Z,100934.56
2019-03-01T16:13:25.152Z,100935.38
2019-03-01T16:15:56.659Z,100944.02
2019-03-01T16:18:27.858Z,100943.14
2019-03-01T16:21:01.998Z,100950.46
2019-03-01T16:23:32.093Z,100955.98
2019-03-01T16:26:04.457Z,100960.94
2019-03-01T16:28:37.421Z,100960.70
2019-03-01T16:31:08.795Z,100963.73
2019-03-01T16:33:40.060Z,100966.05
2019-03-01T16:36:17.432Z,100975.99
2019-03-01T16:38:49.135Z,100984.23
2019-03-01T16:41:20.376Z,100979.20
2019-03-01T16:43:51.637Z,100986.06
2019-03-01T16:46:22.924Z,100989.85
2019-03-01T16:48:54.174Z,101008.64
2019-03-01T16:51:25.512Z,101008.64
2019-03-01T16:53:58.237Z,101006.61
2019-03-01T16:56:29.725Z,101015.56
2019-03-01T16:59:03.837Z,101017.16
2019-03-01T17:01:36.062Z,101023.70
2019-03-01T17:04:07.252Z,101031.53
2019-03-01T17:06:38.540Z,101033.63
2019-03-01T17:09:11.753Z,101047.02
2019-03-01T17:11:43.016Z,101046.78
2019-03-01T17:14:15.874Z,101044.45
2019-03-01T17:16:47.506Z,101046.87
2019-03-01T17:19:20.593Z,101056.70
2019-03-01T17:21:51.982Z,101063.13
2019-03-01T17:24:23.333Z,101066.31
2019-03-01T17:26:54.594Z,101066.40
2019-03-01T17:29:25.800Z,101067.50
2019-03-01T17:31:58.819Z,101070.30
2019-03-01T17:34:30.013Z,101071.18
2019-03-01T17:37:01.299Z,101073.41
2019-03-01T17:39:32.544Z,101072.48
2019-03-01T17:42:03.737Z,101083.36
2019-03-01T17:44:35.067Z,101082.94
2019-03-01T17:47:09.644Z,101080.13
2019-03-01T17:49:42.082Z,101091.48
2019-03-01T17:52:13.448Z,101093.75
2019-03-01T17:54:44.771Z,101098.24
2019-03-01T17:57:17.009Z,101098.56
2019-03-01T17:59:49.303Z,101107.99
2019-03-01T18:02:20.657Z,101108.66
2019-03-01T18:04:51.865Z,101116.11
2019-03-01T18:07:23.724Z,101124.54
2019-03-01T18:09:57.249Z,101119.22
2019-03-01T18:12:28.353Z,101127.76
2019-03-01T18:14:59.567Z,101127.94
2019-03-01T18:17:32.909Z,101128.61
2019-03-01T18:20:03.958Z,101129.00
2019-03-01T18:22:35.225Z,101129.39
2019-03-01T18:25:07.927Z,101135.24
2019-03-01T18:27:42.200Z,101131.43
2019-03-01T18:30:19.834Z,101133.55
2019-03-01T18:32:51.030Z,101136.05
2019-03-01T18:35:23.584Z,101134.12
2019-03-01T18:37:56.098Z,101131.58
2019-03-01T18:40:27.418Z,101138.84
2019-03-01T18:42:58.687Z,101139.97
2019-03-01T18:45:29.907Z,101136.65
2019-03-01T18:48:01.111Z,101140.84
2019-03-01T18:50:32.428Z,101145.04
2019-03-01T18:53:04.221Z,101152.77
2019-03-01T18:55:35.682Z,101154.34
2019-03-01T18:58:06.912Z,101150.61
2019-03-01T19:00:39.206Z,101160.52
2019-03-01T19:03:10.655Z,101162.73
2019-03-01T19:05:42.152Z,101172.89
2019-03-01T19:08:13.982Z,101171.59
2019-03-01T19:10:53.905Z,101174.09
2019-03-01T19:13:20.857Z,101178.11
2019-03-01T19:15:54.423Z,101180.61
2019-03-01T19:18:24.596Z,101183.34
2019-03-01T19:20:55.895Z,101179.53
2019-03-01T19:23:29.412Z,101184.36
2019-03-01T19:26:01.648Z,101179.53
2019-03-01T19:28:33.243Z,101183.16
2019-03-01T19:31:05.407Z,101185.50
2019-03-01T19:33:37.853Z,101190.19
2019-03-01T19:36:10.171Z,101191.21
2019-03-01T19:38:41.748Z,101185.50
2019-03-01T19:41:13.197Z,101183.77
2019-03-01T19:43:45.359Z,101181.05
2019-03-01T19:46:17.632Z,101190.30
2019-03-01T19:48:48.921Z,101185.88
2019-03-01T19:51:20.144Z,101184.22
2019-03-01T19:53:51.791Z,101185.86
2019-03-01T19:56:25.884Z,101183.20
2019-03-01T19:58:56.531Z,101188.33
2019-03-01T20:01:27.996Z,101181.20
2019-03-01T20:03:59.218Z,101184.20
2019-03-01T20:06:30.491Z,101187.84
2019-03-01T20:09:04.515Z,101181.53
2019-03-01T20:11:36.585Z,101182.17
2019-03-01T20:14:07.898Z,101188.03
2019-03-01T20:16:39.125Z,101185.92
2019-03-01T20:19:10.571Z,101187.22
2019-03-01T20:21:44.133Z,101194.28
2019-03-01T20:24:16.291Z,101190.64
2019-03-01T20:26:47.688Z,101193.25
2019-03-01T20:29:21.258Z,101197.28
2019-03-01T20:31:52.703Z,101200.27
2019-03-01T20:34:24.087Z,101200.55
2019-03-01T20:36:55.503Z,101202.94
2019-03-01T20:39:26.873Z,101202.69
2019-03-01T20:41:58.221Z,101198.55
2019-03-01T20:44:29.628Z,101203.77
2019-03-01T20:47:00.867Z,101201.85
2019-03-01T20:49:32.319Z,101198.98
2019-03-01T20:52:03.924Z,101198.66
2019-03-01T20:54:35.335Z,101204.92
2019-03-01T20:57:06.585Z,101202.75
2019-03-01T20:59:39.175Z,101208.55
2019-03-01T21:02:13.160Z,101210.02
2019-03-01T21:04:52.996Z,101210.56
2019-03-01T21:07:16.632Z,101207.73
2019-03-01T21:09:47.853Z,101205.78
2019-03-01T21:12:20.252Z,101212.72
2019-03-01T21:14:53.385Z,101213.61
2019-03-01T21:17:24.977Z,101216.22
2019-03-01T21:19:57.694Z,101215.45
2019-03-01T21:22:28.985Z,101215.45
2019-03-01T21:25:03.167Z,101220.44
2019-03-01T21:27:33.248Z,101215.07
2019-03-01T21:30:05.268Z,101221.36
2019-03-01T21:32:39.273Z,101222.16
2019-03-01T21:35:13.857Z,101221.36
2019-03-01T21:37:43.604Z,101224.23
2019-03-01T21:40:17.299Z,101221.52
2019-03-01T21:42:48.592Z,101220.84
2019-03-01T21:45:21.530Z,101220.10
2019-03-01T21:47:52.975Z,101218.38
2019-03-01T21:50:24.197Z,101218.11
2019-03-01T21:52:55.432Z,101221.62
2019-03-01T21:55:28.688Z,101214.89
2019-03-01T21:57:59.662Z,101223.71
2019-03-01T22:00:31.546Z,101227.78
2019-03-01T22:03:02.882Z,101212.94
2019-03-01T22:05:34.139Z,101217.77
2019-03-01T22:08:05.355Z,101227.28
2019-03-01T22:10:38.932Z,101237.59
2019-03-01T22:13:09.568Z,101227.43
2019-03-01T22:15:40.854Z,101233.95
2019-03-01T22:18:12.101Z,101234.60
2019-03-01T22:20:44.807Z,101236.29
2019-03-01T22:23:16.656Z,101239.93
2019-03-01T22:25:47.860Z,101232.38
2019-03-01T22:28:21.203Z,101238.39
2019-03-01T22:30:52.167Z,101238.66
2019-03-01T22:33:23.444Z,101238.39
2019-03-01T22:35:54.711Z,101241.80
2019-03-01T22:38:25.972Z,101240.88
2019-03-01T22:41:00.621Z,101242.80
2019-03-01T22:43:30.235Z,101235.79
2019-03-01T22:46:01.529Z,101232.27
2019-03-01T22:48:32.872Z,101235.13
2019-03-01T22:51:04.261Z,101231.61
2019-03-01T22:53:38.567Z,101228.35
2019-03-01T22:56:08.692Z,101226.63
2019-03-01T22:58:41.561Z,101230.27
2019-03-01T23:01:29.489Z,101230.66
2019-03-01T23:04:03.665Z,101232.27
2019-03-01T23:06:34.863Z,101234.86
2019-03-01T23:09:10.710Z,101233.27
2019-03-01T23:11:45.311Z,101236.28
2019-03-01T23:14:16.583Z,101237.59
2019-03-01T23:16:50.678Z,101237.44
2019-03-01T23:19:21.001Z,101237.66
2019-03-01T23:21:52.364Z,101235.17
2019-03-01T23:24:23.557Z,101233.25
2019-03-01T23:26:56.795Z,101230.88
2019-03-01T23:29:27.824Z,101231.91
2019-03-01T23:31:59.110Z,101238.53
2019-03-01T23:34:30.354Z,101244.28
2019-03-01T23:37:03.510Z,101236.08
2019-03-01T23:39:34.745Z,101233.16
2019-03-01T23:42:06.323Z,101235.92
2019-03-01T23:44:38.707Z,101237.72
2019-03-01T23:47:10.441Z,101231.59
2019-03-01T23:49:41.618Z,101232.28
2019-03-01T23:52:12.875Z,101246.08
2019-03-01T23:54:44.349Z,101244.78
2019-03-01T23:57:16.449Z,101246.08
2019-03-01T23:59:47.710Z,101245.31
